sensor_id;sensor_type;location;lat;lon;timestamp;P1;durP1;ratioP1;P2;durP2;ratioP2
56419;SDS011;42323;52.170;7.538;2023-04-03T00:02:09;2.28;;;1.95;;
56419;SDS011;42323;52.170;7.538;2023-04-03T00:04:35;2.10;;;1.80;;
56419;SDS011;42323;52.170;7.538;2023-04-03T00:07:02;2.10;;;1.60;;
56419;SDS011;42323;52.170;7.538;2023-04-03T00:09:28;2.33;;;1.95;;
56419;SDS011;42323;52.170;7.538;2023-04-03T00:11:55;4.60;;;1.90;;
56419;SDS011;42323;52.170;7.538;2023-04-03T00:14:22;3.17;;;1.85;;
56419;SDS011;42323;52.170;7.538;2023-04-03T00:16:48;5.00;;;1.80;;
56419;SDS011;42323;52.170;7.538;2023-04-03T00:19:15;2.30;;;1.73;;
56419;SDS011;42323;52.170;7.538;2023-04-03T00:21:47;5.03;;;2.22;;
56419;SDS011;42323;52.170;7.538;2023-04-03T00:24:52;1.75;;;1.65;;
56419;SDS011;42323;52.170;7.538;2023-04-03T00:27:31;2.53;;;1.77;;
56419;SDS011;42323;52.170;7.538;2023-04-03T00:29:58;3.70;;;2.10;;
56419;SDS011;42323;52.170;7.538;2023-04-03T00:32:24;3.38;;;1.98;;
56419;SDS011;42323;52.170;7.538;2023-04-03T00:34:51;1.73;;;1.63;;
56419;SDS011;42323;52.170;7.538;2023-04-03T00:37:17;2.72;;;1.75;;
56419;SDS011;42323;52.170;7.538;2023-04-03T00:39:44;2.83;;;1.90;;
56419;SDS011;42323;52.170;7.538;2023-04-03T00:42:11;3.08;;;1.63;;
56419;SDS011;42323;52.170;7.538;2023-04-03T00:47:05;2.97;;;1.80;;
56419;SDS011;42323;52.170;7.538;2023-04-03T00:49:34;5.10;;;2.10;;
56419;SDS011;42323;52.170;7.538;2023-04-03T00:52:03;3.13;;;1.70;;
56419;SDS011;42323;52.170;7.538;2023-04-03T00:54:32;1.85;;;1.75;;
56419;SDS011;42323;52.170;7.538;2023-04-03T00:57:02;3.88;;;1.73;;
56419;SDS011;42323;52.170;7.538;2023-04-03T00:59:30;3.83;;;1.73;;
56419;SDS011;42323;52.170;7.538;2023-04-03T01:02:00;3.20;;;1.52;;
56419;SDS011;42323;52.170;7.538;2023-04-03T01:04:29;1.80;;;1.70;;
56419;SDS011;42323;52.170;7.538;2023-04-03T01:06:56;2.08;;;1.85;;
56419;SDS011;42323;52.170;7.538;2023-04-03T01:09:27;1.90;;;1.48;;
56419;SDS011;42323;52.170;7.538;2023-04-03T01:12:11;3.70;;;2.00;;
56419;SDS011;42323;52.170;7.538;2023-04-03T01:15:18;2.08;;;1.63;;
56419;SDS011;42323;52.170;7.538;2023-04-03T01:17:52;3.47;;;1.88;;
56419;SDS011;42323;52.170;7.538;2023-04-03T01:25:29;3.33;;;1.83;;
56419;SDS011;42323;52.170;7.538;2023-04-03T01:27:56;2.60;;;1.90;;
56419;SDS011;42323;52.170;7.538;2023-04-03T01:30:24;1.77;;;1.67;;
56419;SDS011;42323;52.170;7.538;2023-04-03T01:32:57;2.55;;;1.70;;
56419;SDS011;42323;52.170;7.538;2023-04-03T01:35:23;6.13;;;1.90;;
56419;SDS011;42323;52.170;7.538;2023-04-03T01:37:50;2.00;;;1.80;;
56419;SDS011;42323;52.170;7.538;2023-04-03T01:40:17;3.65;;;1.63;;
56419;SDS011;42323;52.170;7.538;2023-04-03T01:42:44;1.77;;;1.67;;
56419;SDS011;42323;52.170;7.538;2023-04-03T01:45:10;1.75;;;1.63;;
56419;SDS011;42323;52.170;7.538;2023-04-03T01:47:37;5.20;;;1.65;;
56419;SDS011;42323;52.170;7.538;2023-04-03T01:50:03;4.40;;;1.90;;
56419;SDS011;42323;52.170;7.538;2023-04-03T01:52:30;1.95;;;1.75;;
56419;SDS011;42323;52.170;7.538;2023-04-03T01:54:57;2.50;;;1.80;;
56419;SDS011;42323;52.170;7.538;2023-04-03T01:57:23;2.80;;;1.58;;
56419;SDS011;42323;52.170;7.538;2023-04-03T01:59:50;2.03;;;1.73;;
56419;SDS011;42323;52.170;7.538;2023-04-03T02:02:17;3.05;;;1.73;;
56419;SDS011;42323;52.170;7.538;2023-04-03T02:04:45;3.45;;;1.90;;
56419;SDS011;42323;52.170;7.538;2023-04-03T02:07:11;1.70;;;1.60;;
56419;SDS011;42323;52.170;7.538;2023-04-03T02:09:38;2.95;;;1.77;;
56419;SDS011;42323;52.170;7.538;2023-04-03T02:12:05;3.88;;;1.92;;
56419;SDS011;42323;52.170;7.538;2023-04-03T02:14:31;6.53;;;1.95;;
56419;SDS011;42323;52.170;7.538;2023-04-03T02:16:59;2.58;;;1.95;;
56419;SDS011;42323;52.170;7.538;2023-04-03T02:19:27;2.42;;;1.67;;
56419;SDS011;42323;52.170;7.538;2023-04-03T02:21:53;3.10;;;1.80;;
56419;SDS011;42323;52.170;7.538;2023-04-03T02:24:20;2.35;;;1.98;;
56419;SDS011;42323;52.170;7.538;2023-04-03T02:26:46;3.58;;;1.65;;
56419;SDS011;42323;52.170;7.538;2023-04-03T02:29:13;1.73;;;1.63;;
56419;SDS011;42323;52.170;7.538;2023-04-03T02:31:39;1.60;;;1.50;;
56419;SDS011;42323;52.170;7.538;2023-04-03T02:34:06;3.85;;;1.92;;
56419;SDS011;42323;52.170;7.538;2023-04-03T02:36:33;1.48;;;1.38;;
56419;SDS011;42323;52.170;7.538;2023-04-03T02:38:59;4.78;;;1.90;;
56419;SDS011;42323;52.170;7.538;2023-04-03T02:41:26;2.15;;;1.92;;
56419;SDS011;42323;52.170;7.538;2023-04-03T02:43:59;3.67;;;1.88;;
56419;SDS011;42323;52.170;7.538;2023-04-03T02:46:26;2.92;;;1.73;;
56419;SDS011;42323;52.170;7.538;2023-04-03T02:48:53;2.25;;;1.73;;
56419;SDS011;42323;52.170;7.538;2023-04-03T02:51:19;2.15;;;1.95;;
56419;SDS011;42323;52.170;7.538;2023-04-03T02:53:46;1.80;;;1.70;;
56419;SDS011;42323;52.170;7.538;2023-04-03T02:56:13;4.88;;;2.10;;
56419;SDS011;42323;52.170;7.538;2023-04-03T02:58:39;2.28;;;1.65;;
56419;SDS011;42323;52.170;7.538;2023-04-03T03:01:06;1.90;;;1.80;;
56419;SDS011;42323;52.170;7.538;2023-04-03T03:03:32;3.53;;;1.58;;
56419;SDS011;42323;52.170;7.538;2023-04-03T03:08:33;3.97;;;2.00;;
56419;SDS011;42323;52.170;7.538;2023-04-03T03:11:01;1.95;;;1.80;;
56419;SDS011;42323;52.170;7.538;2023-04-03T03:13:28;2.70;;;2.00;;
56419;SDS011;42323;52.170;7.538;2023-04-03T03:15:54;6.05;;;2.15;;
56419;SDS011;42323;52.170;7.538;2023-04-03T03:18:21;2.10;;;1.95;;
56419;SDS011;42323;52.170;7.538;2023-04-03T03:20:57;2.35;;;2.08;;
56419;SDS011;42323;52.170;7.538;2023-04-03T03:23:25;3.90;;;2.10;;
56419;SDS011;42323;52.170;7.538;2023-04-03T03:25:55;2.97;;;2.22;;
56419;SDS011;42323;52.170;7.538;2023-04-03T03:28:23;4.40;;;1.95;;
56419;SDS011;42323;52.170;7.538;2023-04-03T03:30:49;2.03;;;1.85;;
56419;SDS011;42323;52.170;7.538;2023-04-03T03:33:16;3.05;;;2.10;;
56419;SDS011;42323;52.170;7.538;2023-04-03T03:35:43;2.53;;;1.80;;
56419;SDS011;42323;52.170;7.538;2023-04-03T03:38:11;2.75;;;1.88;;
56419;SDS011;42323;52.170;7.538;2023-04-03T03:40:38;2.50;;;2.10;;
56419;SDS011;42323;52.170;7.538;2023-04-03T03:43:05;2.13;;;1.92;;
56419;SDS011;42323;52.170;7.538;2023-04-03T03:45:32;1.98;;;1.85;;
56419;SDS011;42323;52.170;7.538;2023-04-03T03:47:58;3.63;;;2.00;;
56419;SDS011;42323;52.170;7.538;2023-04-03T03:50:25;1.95;;;1.70;;
56419;SDS011;42323;52.170;7.538;2023-04-03T03:52:52;1.80;;;1.70;;
56419;SDS011;42323;52.170;7.538;2023-04-03T03:55:18;2.58;;;2.00;;
56419;SDS011;42323;52.170;7.538;2023-04-03T03:57:45;3.70;;;1.92;;
56419;SDS011;42323;52.170;7.538;2023-04-03T04:00:11;3.72;;;2.22;;
56419;SDS011;42323;52.170;7.538;2023-04-03T04:02:38;2.00;;;1.80;;
56419;SDS011;42323;52.170;7.538;2023-04-03T04:05:05;1.90;;;1.80;;
56419;SDS011;42323;52.170;7.538;2023-04-03T04:07:32;1.92;;;1.83;;
56419;SDS011;42323;52.170;7.538;2023-04-03T04:09:59;3.08;;;2.10;;
56419;SDS011;42323;52.170;7.538;2023-04-03T04:12:25;1.90;;;1.80;;
56419;SDS011;42323;52.170;7.538;2023-04-03T04:14:52;3.03;;;1.88;;
56419;SDS011;42323;52.170;7.538;2023-04-03T04:17:18;2.63;;;2.10;;
56419;SDS011;42323;52.170;7.538;2023-04-03T04:19:45;2.20;;;1.95;;
56419;SDS011;42323;52.170;7.538;2023-04-03T04:22:12;1.95;;;1.85;;
56419;SDS011;42323;52.170;7.538;2023-04-03T04:24:39;4.03;;;2.10;;
56419;SDS011;42323;52.170;7.538;2023-04-03T04:27:05;2.95;;;2.03;;
56419;SDS011;42323;52.170;7.538;2023-04-03T04:29:32;2.88;;;2.20;;
56419;SDS011;42323;52.170;7.538;2023-04-03T04:32:04;2.00;;;1.90;;
56419;SDS011;42323;52.170;7.538;2023-04-03T04:34:31;4.13;;;1.98;;
56419;SDS011;42323;52.170;7.538;2023-04-03T04:36:59;3.72;;;2.13;;
56419;SDS011;42323;52.170;7.538;2023-04-03T04:39:26;2.05;;;1.83;;
56419;SDS011;42323;52.170;7.538;2023-04-03T04:41:53;2.45;;;2.25;;
56419;SDS011;42323;52.170;7.538;2023-04-03T04:44:20;2.45;;;1.80;;
56419;SDS011;42323;52.170;7.538;2023-04-03T04:46:46;4.28;;;1.95;;
56419;SDS011;42323;52.170;7.538;2023-04-03T04:49:13;1.85;;;1.75;;
56419;SDS011;42323;52.170;7.538;2023-04-03T04:51:39;3.20;;;2.40;;
56419;SDS011;42323;52.170;7.538;2023-04-03T04:54:16;2.30;;;2.20;;
56419;SDS011;42323;52.170;7.538;2023-04-03T04:56:43;2.28;;;1.90;;
56419;SDS011;42323;52.170;7.538;2023-04-03T04:59:10;4.55;;;1.90;;
56419;SDS011;42323;52.170;7.538;2023-04-03T05:01:36;2.60;;;1.80;;
56419;SDS011;42323;52.170;7.538;2023-04-03T05:04:03;2.00;;;1.83;;
56419;SDS011;42323;52.170;7.538;2023-04-03T05:06:30;2.63;;;2.05;;
56419;SDS011;42323;52.170;7.538;2023-04-03T05:08:58;2.65;;;2.17;;
56419;SDS011;42323;52.170;7.538;2023-04-03T05:11:25;2.15;;;1.98;;
56419;SDS011;42323;52.170;7.538;2023-04-03T05:13:52;2.20;;;2.00;;
56419;SDS011;42323;52.170;7.538;2023-04-03T05:16:18;2.00;;;1.90;;
56419;SDS011;42323;52.170;7.538;2023-04-03T05:18:45;4.05;;;2.17;;
56419;SDS011;42323;52.170;7.538;2023-04-03T05:21:12;2.35;;;2.15;;
56419;SDS011;42323;52.170;7.538;2023-04-03T05:23:38;3.03;;;1.95;;
56419;SDS011;42323;52.170;7.538;2023-04-03T05:26:05;2.90;;;2.20;;
56419;SDS011;42323;52.170;7.538;2023-04-03T05:28:32;2.45;;;2.00;;
56419;SDS011;42323;52.170;7.538;2023-04-03T05:30:59;1.90;;;1.80;;
56419;SDS011;42323;52.170;7.538;2023-04-03T05:33:26;3.05;;;2.25;;
56419;SDS011;42323;52.170;7.538;2023-04-03T05:35:53;2.42;;;2.17;;
56419;SDS011;42323;52.170;7.538;2023-04-03T05:38:21;3.08;;;2.00;;
56419;SDS011;42323;52.170;7.538;2023-04-03T05:40:47;2.33;;;2.10;;
56419;SDS011;42323;52.170;7.538;2023-04-03T05:43:14;2.17;;;1.98;;
56419;SDS011;42323;52.170;7.538;2023-04-03T05:45:42;1.90;;;1.80;;
56419;SDS011;42323;52.170;7.538;2023-04-03T05:48:11;2.95;;;2.15;;
56419;SDS011;42323;52.170;7.538;2023-04-03T05:50:39;2.08;;;1.90;;
56419;SDS011;42323;52.170;7.538;2023-04-03T05:53:11;5.13;;;2.13;;
56419;SDS011;42323;52.170;7.538;2023-04-03T05:55:43;2.15;;;1.95;;
56419;SDS011;42323;52.170;7.538;2023-04-03T05:58:10;2.53;;;2.15;;
56419;SDS011;42323;52.170;7.538;2023-04-03T06:00:37;2.42;;;1.88;;
56419;SDS011;42323;52.170;7.538;2023-04-03T06:03:04;2.17;;;1.98;;
56419;SDS011;42323;52.170;7.538;2023-04-03T06:05:31;1.80;;;1.70;;
56419;SDS011;42323;52.170;7.538;2023-04-03T06:07:58;2.10;;;1.85;;
56419;SDS011;42323;52.170;7.538;2023-04-03T06:10:24;4.22;;;2.60;;
56419;SDS011;42323;52.170;7.538;2023-04-03T06:12:51;2.40;;;2.17;;
56419;SDS011;42323;52.170;7.538;2023-04-03T06:15:17;3.10;;;2.28;;
56419;SDS011;42323;52.170;7.538;2023-04-03T06:17:44;2.65;;;1.98;;
56419;SDS011;42323;52.170;7.538;2023-04-03T06:20:11;2.42;;;2.17;;
56419;SDS011;42323;52.170;7.538;2023-04-03T06:22:39;1.88;;;1.77;;
56419;SDS011;42323;52.170;7.538;2023-04-03T06:25:06;2.90;;;1.90;;
56419;SDS011;42323;52.170;7.538;2023-04-03T06:27:33;3.05;;;2.40;;
56419;SDS011;42323;52.170;7.538;2023-04-03T06:30:00;2.10;;;1.90;;
56419;SDS011;42323;52.170;7.538;2023-04-03T06:32:26;2.25;;;2.10;;
56419;SDS011;42323;52.170;7.538;2023-04-03T06:34:53;2.35;;;2.00;;
56419;SDS011;42323;52.170;7.538;2023-04-03T06:37:20;3.03;;;2.30;;
56419;SDS011;42323;52.170;7.538;2023-04-03T06:39:48;2.45;;;2.15;;
56419;SDS011;42323;52.170;7.538;2023-04-03T06:42:15;2.13;;;1.83;;
56419;SDS011;42323;52.170;7.538;2023-04-03T06:44:42;2.35;;;1.80;;
56419;SDS011;42323;52.170;7.538;2023-04-03T06:47:12;2.25;;;1.95;;
56419;SDS011;42323;52.170;7.538;2023-04-03T06:49:40;3.33;;;2.17;;
56419;SDS011;42323;52.170;7.538;2023-04-03T06:52:07;3.03;;;2.22;;
56419;SDS011;42323;52.170;7.538;2023-04-03T06:54:34;2.30;;;2.10;;
56419;SDS011;42323;52.170;7.538;2023-04-03T06:57:02;1.88;;;1.77;;
56419;SDS011;42323;52.170;7.538;2023-04-03T06:59:28;5.90;;;2.05;;
56419;SDS011;42323;52.170;7.538;2023-04-03T07:01:55;2.30;;;1.80;;
56419;SDS011;42323;52.170;7.538;2023-04-03T07:04:22;3.63;;;2.00;;
56419;SDS011;42323;52.170;7.538;2023-04-03T07:06:48;3.25;;;1.55;;
56419;SDS011;42323;52.170;7.538;2023-04-03T07:09:15;4.85;;;2.50;;
56419;SDS011;42323;52.170;7.538;2023-04-03T07:11:42;3.85;;;1.77;;
56419;SDS011;42323;52.170;7.538;2023-04-03T07:14:08;3.95;;;2.00;;
56419;SDS011;42323;52.170;7.538;2023-04-03T07:16:35;4.97;;;1.70;;
56419;SDS011;42323;52.170;7.538;2023-04-03T07:19:03;1.75;;;1.65;;
56419;SDS011;42323;52.170;7.538;2023-04-03T07:21:30;2.15;;;1.92;;
56419;SDS011;42323;52.170;7.538;2023-04-03T07:23:56;1.75;;;1.65;;
56419;SDS011;42323;52.170;7.538;2023-04-03T07:26:23;5.45;;;1.90;;
56419;SDS011;42323;52.170;7.538;2023-04-03T07:28:50;1.80;;;1.58;;
56419;SDS011;42323;52.170;7.538;2023-04-03T07:31:16;3.47;;;1.90;;
56419;SDS011;42323;52.170;7.538;2023-04-03T07:33:44;4.15;;;1.80;;
56419;SDS011;42323;52.170;7.538;2023-04-03T07:36:15;1.83;;;1.58;;
56419;SDS011;42323;52.170;7.538;2023-04-03T07:38:46;2.50;;;1.67;;
56419;SDS011;42323;52.170;7.538;2023-04-03T07:41:16;3.75;;;1.65;;
56419;SDS011;42323;52.170;7.538;2023-04-03T07:43:44;1.88;;;1.77;;
56419;SDS011;42323;52.170;7.538;2023-04-03T07:46:11;3.88;;;2.05;;
56419;SDS011;42323;52.170;7.538;2023-04-03T07:48:39;3.20;;;1.80;;
56419;SDS011;42323;52.170;7.538;2023-04-03T07:51:05;1.80;;;1.70;;
56419;SDS011;42323;52.170;7.538;2023-04-03T07:53:32;3.50;;;1.73;;
56419;SDS011;42323;52.170;7.538;2023-04-03T07:55:59;2.78;;;1.60;;
56419;SDS011;42323;52.170;7.538;2023-04-03T07:58:26;1.88;;;1.60;;
56419;SDS011;42323;52.170;7.538;2023-04-03T08:00:52;3.13;;;1.88;;
56419;SDS011;42323;52.170;7.538;2023-04-03T08:03:19;2.10;;;1.50;;
56419;SDS011;42323;52.170;7.538;2023-04-03T08:05:47;2.38;;;1.48;;
56419;SDS011;42323;52.170;7.538;2023-04-03T08:08:18;3.40;;;1.63;;
56419;SDS011;42323;52.170;7.538;2023-04-03T08:10:48;1.58;;;1.48;;
56419;SDS011;42323;52.170;7.538;2023-04-03T08:13:16;2.40;;;1.88;;
56419;SDS011;42323;52.170;7.538;2023-04-03T08:15:43;1.52;;;1.42;;
56419;SDS011;42323;52.170;7.538;2023-04-03T08:18:10;5.05;;;1.42;;
56419;SDS011;42323;52.170;7.538;2023-04-03T08:20:37;2.80;;;1.50;;
56419;SDS011;42323;52.170;7.538;2023-04-03T08:23:06;2.05;;;1.40;;
56419;SDS011;42323;52.170;7.538;2023-04-03T08:25:34;1.85;;;1.50;;
56419;SDS011;42323;52.170;7.538;2023-04-03T08:28:04;6.25;;;1.40;;
56419;SDS011;42323;52.170;7.538;2023-04-03T08:30:31;2.20;;;1.50;;
56419;SDS011;42323;52.170;7.538;2023-04-03T08:32:59;3.58;;;1.35;;
56419;SDS011;42323;52.170;7.538;2023-04-03T08:35:27;1.10;;;1.10;;
56419;SDS011;42323;52.170;7.538;2023-04-03T08:37:54;3.03;;;1.42;;
56419;SDS011;42323;52.170;7.538;2023-04-03T08:40:28;1.50;;;1.40;;
56419;SDS011;42323;52.170;7.538;2023-04-03T08:45:57;1.20;;;1.10;;
56419;SDS011;42323;52.170;7.538;2023-04-03T08:48:31;1.52;;;1.10;;
56419;SDS011;42323;52.170;7.538;2023-04-03T08:51:02;1.20;;;1.10;;
56419;SDS011;42323;52.170;7.538;2023-04-03T08:53:39;1.20;;;1.10;;
56419;SDS011;42323;52.170;7.538;2023-04-03T08:56:09;1.30;;;1.15;;
56419;SDS011;42323;52.170;7.538;2023-04-03T08:58:41;1.10;;;1.10;;
56419;SDS011;42323;52.170;7.538;2023-04-03T09:01:25;3.75;;;1.40;;
56419;SDS011;42323;52.170;7.538;2023-04-03T09:03:56;1.45;;;1.00;;
56419;SDS011;42323;52.170;7.538;2023-04-03T09:06:26;1.52;;;1.17;;
56419;SDS011;42323;52.170;7.538;2023-04-03T09:15:19;1.00;;;1.00;;
56419;SDS011;42323;52.170;7.538;2023-04-03T09:20:14;3.40;;;1.30;;
56419;SDS011;42323;52.170;7.538;2023-04-03T09:22:48;1.10;;;1.00;;
56419;SDS011;42323;52.170;7.538;2023-04-03T09:25:20;1.77;;;1.10;;
56419;SDS011;42323;52.170;7.538;2023-04-03T09:27:49;0.90;;;0.90;;
56419;SDS011;42323;52.170;7.538;2023-04-03T09:30:18;2.25;;;1.15;;
56419;SDS011;42323;52.170;7.538;2023-04-03T09:32:49;1.02;;;1.02;;
56419;SDS011;42323;52.170;7.538;2023-04-03T09:35:28;3.75;;;1.10;;
56419;SDS011;42323;52.170;7.538;2023-04-03T09:40:39;1.30;;;1.10;;
56419;SDS011;42323;52.170;7.538;2023-04-03T09:45:44;1.67;;;1.20;;
56419;SDS011;42323;52.170;7.538;2023-04-03T09:55:53;1.55;;;1.20;;
56419;SDS011;42323;52.170;7.538;2023-04-03T09:58:27;2.88;;;1.25;;
56419;SDS011;42323;52.170;7.538;2023-04-03T10:01:20;1.67;;;1.40;;
56419;SDS011;42323;52.170;7.538;2023-04-03T10:12:01;1.60;;;1.40;;
56419;SDS011;42323;52.170;7.538;2023-04-03T10:14:38;1.88;;;1.30;;
56419;SDS011;42323;52.170;7.538;2023-04-03T10:17:22;1.45;;;1.30;;
56419;SDS011;42323;52.170;7.538;2023-04-03T10:34:48;1.42;;;1.10;;
56419;SDS011;42323;52.170;7.538;2023-04-03T10:37:41;2.35;;;1.15;;
56419;SDS011;42323;52.170;7.538;2023-04-03T10:54:13;1.83;;;1.00;;
56419;SDS011;42323;52.170;7.538;2023-04-03T10:56:50;2.75;;;1.20;;
56419;SDS011;42323;52.170;7.538;2023-04-03T10:59:47;2.53;;;1.20;;
56419;SDS011;42323;52.170;7.538;2023-04-03T11:04:56;3.80;;;1.10;;
56419;SDS011;42323;52.170;7.538;2023-04-03T11:07:37;4.72;;;1.33;;
56419;SDS011;42323;52.170;7.538;2023-04-03T11:10:12;2.20;;;1.20;;
56419;SDS011;42323;52.170;7.538;2023-04-03T11:12:48;3.50;;;1.70;;
56419;SDS011;42323;52.170;7.538;2023-04-03T12:47:25;2.15;;;1.10;;
56419;SDS011;42323;52.170;7.538;2023-04-03T12:52:40;2.57;;;1.10;;
56419;SDS011;42323;52.170;7.538;2023-04-03T12:55:14;2.13;;;1.00;;
56419;SDS011;42323;52.170;7.538;2023-04-03T12:57:46;2.03;;;0.98;;
56419;SDS011;42323;52.170;7.538;2023-04-03T13:00:27;2.55;;;1.00;;
56419;SDS011;42323;52.170;7.538;2023-04-03T13:03:00;2.45;;;1.10;;
56419;SDS011;42323;52.170;7.538;2023-04-03T13:05:31;3.08;;;1.00;;
56419;SDS011;42323;52.170;7.538;2023-04-03T13:08:05;2.72;;;1.20;;
56419;SDS011;42323;52.170;7.538;2023-04-03T13:11:10;2.42;;;0.90;;
56419;SDS011;42323;52.170;7.538;2023-04-03T13:13:35;2.15;;;0.90;;
56419;SDS011;42323;52.170;7.538;2023-04-03T13:16:10;3.00;;;1.10;;
56419;SDS011;42323;52.170;7.538;2023-04-03T13:18:39;2.28;;;0.70;;
56419;SDS011;42323;52.170;7.538;2023-04-03T13:21:21;1.40;;;0.90;;
56419;SDS011;42323;52.170;7.538;2023-04-03T13:23:57;2.25;;;1.02;;
56419;SDS011;42323;52.170;7.538;2023-04-03T13:26:39;3.92;;;0.90;;
56419;SDS011;42323;52.170;7.538;2023-04-03T13:29:15;2.63;;;1.00;;
56419;SDS011;42323;52.170;7.538;2023-04-03T13:31:55;2.78;;;0.98;;
56419;SDS011;42323;52.170;7.538;2023-04-03T13:34:25;2.67;;;1.10;;
56419;SDS011;42323;52.170;7.538;2023-04-03T13:36:55;1.45;;;0.80;;
56419;SDS011;42323;52.170;7.538;2023-04-03T13:39:25;2.35;;;0.80;;
56419;SDS011;42323;52.170;7.538;2023-04-03T13:42:01;2.53;;;0.90;;
56419;SDS011;42323;52.170;7.538;2023-04-03T13:44:42;1.98;;;0.77;;
56419;SDS011;42323;52.170;7.538;2023-04-03T13:49:45;2.42;;;0.85;;
56419;SDS011;42323;52.170;7.538;2023-04-03T13:55:23;1.95;;;1.05;;
56419;SDS011;42323;52.170;7.538;2023-04-03T14:00:31;1.73;;;0.60;;
56419;SDS011;42323;52.170;7.538;2023-04-03T14:03:00;2.63;;;0.85;;
56419;SDS011;42323;52.170;7.538;2023-04-03T14:05:27;1.98;;;0.80;;
56419;SDS011;42323;52.170;7.538;2023-04-03T14:07:54;2.42;;;0.77;;
56419;SDS011;42323;52.170;7.538;2023-04-03T14:10:21;4.78;;;1.10;;
56419;SDS011;42323;52.170;7.538;2023-04-03T14:12:48;2.35;;;1.05;;
56419;SDS011;42323;52.170;7.538;2023-04-03T14:15:16;3.45;;;0.90;;
56419;SDS011;42323;52.170;7.538;2023-04-03T14:17:45;1.55;;;0.70;;
56419;SDS011;42323;52.170;7.538;2023-04-03T14:20:16;1.42;;;0.60;;
56419;SDS011;42323;52.170;7.538;2023-04-03T14:22:44;3.13;;;0.90;;
56419;SDS011;42323;52.170;7.538;2023-04-03T14:25:11;1.20;;;0.90;;
56419;SDS011;42323;52.170;7.538;2023-04-03T14:27:42;2.45;;;1.00;;
56419;SDS011;42323;52.170;7.538;2023-04-03T14:32:52;2.47;;;0.85;;
56419;SDS011;42323;52.170;7.538;2023-04-03T14:35:19;1.58;;;0.70;;
56419;SDS011;42323;52.170;7.538;2023-04-03T14:37:47;2.10;;;0.90;;
56419;SDS011;42323;52.170;7.538;2023-04-03T14:40:18;3.28;;;0.80;;
56419;SDS011;42323;52.170;7.538;2023-04-03T14:42:50;1.33;;;0.70;;
56419;SDS011;42323;52.170;7.538;2023-04-03T14:45:17;2.33;;;0.98;;
56419;SDS011;42323;52.170;7.538;2023-04-03T14:47:49;1.13;;;0.60;;
56419;SDS011;42323;52.170;7.538;2023-04-03T14:50:19;1.35;;;0.70;;
56419;SDS011;42323;52.170;7.538;2023-04-03T14:52:48;1.60;;;0.80;;
56419;SDS011;42323;52.170;7.538;2023-04-03T14:55:16;1.70;;;1.08;;
56419;SDS011;42323;52.170;7.538;2023-04-03T14:57:44;1.70;;;0.93;;
56419;SDS011;42323;52.170;7.538;2023-04-03T15:00:16;2.03;;;1.02;;
56419;SDS011;42323;52.170;7.538;2023-04-03T15:02:43;3.22;;;0.70;;
56419;SDS011;42323;52.170;7.538;2023-04-03T15:05:10;2.35;;;0.88;;
56419;SDS011;42323;52.170;7.538;2023-04-03T15:07:38;2.25;;;1.00;;
56419;SDS011;42323;52.170;7.538;2023-04-03T15:12:42;3.63;;;1.00;;
56419;SDS011;42323;52.170;7.538;2023-04-03T15:15:10;2.08;;;0.82;;
56419;SDS011;42323;52.170;7.538;2023-04-03T15:17:37;1.85;;;0.70;;
56419;SDS011;42323;52.170;7.538;2023-04-03T15:20:05;1.77;;;0.90;;
56419;SDS011;42323;52.170;7.538;2023-04-03T15:22:39;2.58;;;1.15;;
56419;SDS011;42323;52.170;7.538;2023-04-03T15:25:06;2.08;;;0.82;;
56419;SDS011;42323;52.170;7.538;2023-04-03T15:39:48;1.23;;;0.65;;
56419;SDS011;42323;52.170;7.538;2023-04-03T16:04:21;1.35;;;0.80;;
56419;SDS011;42323;52.170;7.538;2023-04-03T16:06:48;1.55;;;0.70;;
56419;SDS011;42323;52.170;7.538;2023-04-03T16:17:00;2.42;;;0.80;;
56419;SDS011;42323;52.170;7.538;2023-04-03T16:19:26;1.83;;;0.90;;
56419;SDS011;42323;52.170;7.538;2023-04-03T16:21:54;2.45;;;1.25;;
56419;SDS011;42323;52.170;7.538;2023-04-03T16:24:21;2.50;;;1.08;;
56419;SDS011;42323;52.170;7.538;2023-04-03T16:26:48;2.72;;;1.33;;
56419;SDS011;42323;52.170;7.538;2023-04-03T16:29:15;3.08;;;1.20;;
56419;SDS011;42323;52.170;7.538;2023-04-03T16:31:43;0.98;;;0.85;;
56419;SDS011;42323;52.170;7.538;2023-04-03T16:34:13;2.28;;;0.90;;
56419;SDS011;42323;52.170;7.538;2023-04-03T16:36:40;2.65;;;1.10;;
56419;SDS011;42323;52.170;7.538;2023-04-03T16:39:06;1.02;;;0.90;;
56419;SDS011;42323;52.170;7.538;2023-04-03T16:41:36;1.15;;;0.75;;
56419;SDS011;42323;52.170;7.538;2023-04-03T16:44:02;2.65;;;0.80;;
56419;SDS011;42323;52.170;7.538;2023-04-03T16:46:29;1.70;;;0.77;;
56419;SDS011;42323;52.170;7.538;2023-04-03T16:48:55;1.45;;;0.80;;
56419;SDS011;42323;52.170;7.538;2023-04-03T16:56:15;3.80;;;1.15;;
56419;SDS011;42323;52.170;7.538;2023-04-03T16:58:42;2.45;;;0.90;;
56419;SDS011;42323;52.170;7.538;2023-04-03T17:01:10;3.45;;;1.10;;
56419;SDS011;42323;52.170;7.538;2023-04-03T17:03:41;2.22;;;1.00;;
56419;SDS011;42323;52.170;7.538;2023-04-03T17:06:09;1.73;;;0.93;;
56419;SDS011;42323;52.170;7.538;2023-04-03T17:08:42;1.95;;;1.00;;
56419;SDS011;42323;52.170;7.538;2023-04-03T17:11:10;2.70;;;1.00;;
56419;SDS011;42323;52.170;7.538;2023-04-03T17:13:36;3.42;;;1.38;;
56419;SDS011;42323;52.170;7.538;2023-04-03T17:16:03;1.70;;;1.20;;
56419;SDS011;42323;52.170;7.538;2023-04-03T17:18:33;2.05;;;1.10;;
56419;SDS011;42323;52.170;7.538;2023-04-03T17:21:01;1.25;;;1.05;;
56419;SDS011;42323;52.170;7.538;2023-04-03T17:23:28;2.28;;;1.20;;
56419;SDS011;42323;52.170;7.538;2023-04-03T17:25:55;3.05;;;1.15;;
56419;SDS011;42323;52.170;7.538;2023-04-03T17:28:22;4.65;;;1.40;;
56419;SDS011;42323;52.170;7.538;2023-04-03T17:30:54;1.50;;;1.10;;
56419;SDS011;42323;52.170;7.538;2023-04-03T17:33:22;1.77;;;1.13;;
56419;SDS011;42323;52.170;7.538;2023-04-03T17:35:48;2.63;;;1.30;;
56419;SDS011;42323;52.170;7.538;2023-04-03T17:38:15;1.73;;;1.10;;
56419;SDS011;42323;52.170;7.538;2023-04-03T17:40:41;1.45;;;1.20;;
56419;SDS011;42323;52.170;7.538;2023-04-03T17:43:10;4.60;;;2.05;;
56419;SDS011;42323;52.170;7.538;2023-04-03T17:45:37;2.60;;;1.55;;
56419;SDS011;42323;52.170;7.538;2023-04-03T17:48:05;4.13;;;1.30;;
56419;SDS011;42323;52.170;7.538;2023-04-03T17:50:31;2.70;;;1.40;;
56419;SDS011;42323;52.170;7.538;2023-04-03T17:52:58;2.47;;;1.33;;
56419;SDS011;42323;52.170;7.538;2023-04-03T17:55:25;2.25;;;1.40;;
56419;SDS011;42323;52.170;7.538;2023-04-03T17:57:51;4.68;;;1.40;;
56419;SDS011;42323;52.170;7.538;2023-04-03T18:00:18;3.08;;;1.60;;
56419;SDS011;42323;52.170;7.538;2023-04-03T18:02:44;4.10;;;1.73;;
56419;SDS011;42323;52.170;7.538;2023-04-03T18:05:11;3.72;;;1.40;;
56419;SDS011;42323;52.170;7.538;2023-04-03T18:07:38;2.97;;;1.85;;
56419;SDS011;42323;52.170;7.538;2023-04-03T18:10:06;2.53;;;1.30;;
56419;SDS011;42323;52.170;7.538;2023-04-03T18:12:34;1.25;;;1.15;;
56419;SDS011;42323;52.170;7.538;2023-04-03T18:15:03;2.40;;;1.40;;
56419;SDS011;42323;52.170;7.538;2023-04-03T18:17:30;3.33;;;1.30;;
56419;SDS011;42323;52.170;7.538;2023-04-03T18:19:57;2.90;;;1.38;;
56419;SDS011;42323;52.170;7.538;2023-04-03T18:22:24;1.65;;;1.08;;
56419;SDS011;42323;52.170;7.538;2023-04-03T18:24:51;3.67;;;1.20;;
56419;SDS011;42323;52.170;7.538;2023-04-03T18:27:20;2.10;;;1.40;;
56419;SDS011;42323;52.170;7.538;2023-04-03T18:29:54;1.42;;;1.13;;
56419;SDS011;42323;52.170;7.538;2023-04-03T18:32:25;3.20;;;1.67;;
56419;SDS011;42323;52.170;7.538;2023-04-03T18:34:54;2.35;;;1.30;;
56419;SDS011;42323;52.170;7.538;2023-04-03T18:37:22;3.00;;;1.50;;
56419;SDS011;42323;52.170;7.538;2023-04-03T18:39:53;1.98;;;1.40;;
56419;SDS011;42323;52.170;7.538;2023-04-03T18:42:23;3.03;;;1.48;;
56419;SDS011;42323;52.170;7.538;2023-04-03T18:44:58;2.42;;;1.73;;
56419;SDS011;42323;52.170;7.538;2023-04-03T18:47:30;3.83;;;1.65;;
56419;SDS011;42323;52.170;7.538;2023-04-03T18:49:57;1.52;;;1.40;;